DAL2277 KLAX-KLAS
Flight info
| Callsign | DAL2277 |
|---|---|
| Flight time | 0h 47m |
| Altitude | 29000 |
| Route | ORCKA5 MISEN RNDRZ4 |
| Aircraft | B738/M-SDE2E3FGHIRWXY/LB1 |
Departure
| Time | 2026-05-05 17:06 |
|---|---|
| Airport | Los Angeles International Airport (KLAX) |
Arrival
| Time | 2026-05-05 17:53 |
|---|---|
| Airport | Harry Reid International Airport (KLAS) |
| Time | Latitude | Longitude | Altitude | Speed | Heading |
|---|---|---|---|---|---|
| 2026-05-05 16:36 | 33.94633 | -118.40834 | 120 ft | 0 kts | 96° |
| 2026-05-05 16:59 | 33.94634 | -118.40841 | 120 ft | 2 kts | 91° |
| 2026-05-05 16:59 | 33.94632 | -118.40859 | 120 ft | 2 kts | 70° |
| 2026-05-05 16:59 | 33.94625 | -118.40874 | 121 ft | 2 kts | 53° |
| 2026-05-05 16:59 | 33.94614 | -118.40887 | 121 ft | 2 kts | 36° |
| 2026-05-05 17:00 | 33.94601 | -118.40895 | 121 ft | 2 kts | 19° |
| 2026-05-05 17:00 | 33.94587 | -118.40899 | 121 ft | 2 kts | 1° |
| 2026-05-05 17:00 | 33.94576 | -118.40898 | 121 ft | 0 kts | 349° |
| 2026-05-05 17:00 | 33.94575 | -118.40897 | 121 ft | 0 kts | 349° |
| 2026-05-05 17:01 | 33.94587 | -118.40900 | 121 ft | 6 kts | 351° |
| 2026-05-05 17:02 | 33.94647 | -118.40907 | 121 ft | 8 kts | 355° |
| 2026-05-05 17:02 | 33.94672 | -118.40911 | 121 ft | 0 kts | 353° |
| 2026-05-05 17:02 | 33.94673 | -118.40911 | 121 ft | 1 kts | 353° |
| 2026-05-05 17:03 | 33.94714 | -118.40915 | 121 ft | 7 kts | 6° |
| 2026-05-05 17:03 | 33.94758 | -118.40878 | 122 ft | 3 kts | 8° |
| 2026-05-05 17:03 | 33.94794 | -118.40889 | 122 ft | 6 kts | 0° |
| 2026-05-05 17:03 | 33.94841 | -118.40836 | 123 ft | 15 kts | 78° |
| 2026-05-05 17:04 | 33.94860 | -118.40671 | 120 ft | 21 kts | 82° |
| 2026-05-05 17:04 | 33.94877 | -118.40492 | 120 ft | 21 kts | 83° |
| 2026-05-05 17:04 | 33.94896 | -118.40311 | 117 ft | 22 kts | 83° |
| 2026-05-05 17:04 | 33.94913 | -118.40131 | 116 ft | 21 kts | 83° |
| 2026-05-05 17:05 | 33.94931 | -118.39968 | 113 ft | 14 kts | 75° |
| 2026-05-05 17:05 | 33.94993 | -118.39920 | 112 ft | 11 kts | 359° |
| 2026-05-05 17:05 | 33.95037 | -118.40011 | 113 ft | 21 kts | 264° |
| 2026-05-05 17:05 | 33.94988 | -118.40482 | 120 ft | 95 kts | 263° |
| 2026-05-05 17:06 | 33.94881 | -118.41556 | 129 ft | 160 kts | 263° |
| 2026-05-05 17:06 | 33.94739 | -118.42949 | 740 ft | 174 kts | 263° |
| 2026-05-05 17:06 | 33.94587 | -118.44415 | 1501 ft | 185 kts | 263° |
| 2026-05-05 17:06 | 33.94430 | -118.45986 | 2122 ft | 199 kts | 263° |
| 2026-05-05 17:07 | 33.94253 | -118.47714 | 2724 ft | 215 kts | 263° |
| 2026-05-05 17:07 | 33.94051 | -118.49538 | 3358 ft | 229 kts | 263° |
| 2026-05-05 17:07 | 33.93833 | -118.51467 | 4022 ft | 241 kts | 263° |
| 2026-05-05 17:07 | 33.93606 | -118.53474 | 4883 ft | 243 kts | 263° |
| 2026-05-05 17:08 | 33.93380 | -118.55504 | 5705 ft | 247 kts | 264° |
| 2026-05-05 17:08 | 33.93147 | -118.57578 | 6532 ft | 251 kts | 264° |
| 2026-05-05 17:08 | 33.92918 | -118.59629 | 7355 ft | 253 kts | 264° |
| 2026-05-05 17:08 | 33.92681 | -118.61739 | 8177 ft | 255 kts | 264° |
| 2026-05-05 17:09 | 33.92448 | -118.63869 | 8957 ft | 258 kts | 264° |
| 2026-05-05 17:09 | 33.92211 | -118.66019 | 9727 ft | 261 kts | 264° |
| 2026-05-05 17:09 | 33.91972 | -118.68175 | 10488 ft | 264 kts | 263° |
| 2026-05-05 17:09 | 33.91482 | -118.70302 | 11224 ft | 269 kts | 244° |
| 2026-05-05 17:10 | 33.90369 | -118.72130 | 11971 ft | 275 kts | 228° |
| 2026-05-05 17:10 | 33.88801 | -118.73470 | 12651 ft | 287 kts | 203° |
| 2026-05-05 17:10 | 33.86777 | -118.73792 | 13128 ft | 306 kts | 173° |
| 2026-05-05 17:10 | 33.84743 | -118.72885 | 13603 ft | 323 kts | 146° |
| 2026-05-05 17:11 | 33.83161 | -118.70929 | 14063 ft | 339 kts | 121° |
| 2026-05-05 17:11 | 33.82337 | -118.68227 | 14539 ft | 353 kts | 96° |
| 2026-05-05 17:11 | 33.82570 | -118.65262 | 15016 ft | 364 kts | 71° |
| 2026-05-05 17:11 | 33.83648 | -118.62423 | 15479 ft | 378 kts | 58° |
| 2026-05-05 17:12 | 33.85074 | -118.59699 | 15925 ft | 392 kts | 55° |
| 2026-05-05 17:12 | 33.86589 | -118.56941 | 16682 ft | 398 kts | 55° |
| 2026-05-05 17:12 | 33.88066 | -118.54156 | 17487 ft | 402 kts | 56° |
| 2026-05-05 17:12 | 33.89527 | -118.51245 | 18300 ft | 406 kts | 58° |
| 2026-05-05 17:13 | 33.90954 | -118.48277 | 18897 ft | 413 kts | 59° |
| 2026-05-05 17:13 | 33.92369 | -118.45255 | 19007 ft | 413 kts | 59° |
| 2026-05-05 17:13 | 33.93813 | -118.42287 | 19010 ft | 410 kts | 57° |
| 2026-05-05 17:13 | 33.95360 | -118.39409 | 19012 ft | 410 kts | 54° |
| 2026-05-05 17:14 | 33.96976 | -118.36560 | 19010 ft | 410 kts | 54° |
| 2026-05-05 17:14 | 33.98609 | -118.33744 | 19010 ft | 409 kts | 54° |
| 2026-05-05 17:14 | 34.00242 | -118.30935 | 19010 ft | 409 kts | 54° |
| 2026-05-05 17:14 | 34.01881 | -118.28099 | 19132 ft | 417 kts | 54° |
| 2026-05-05 17:15 | 34.03518 | -118.25246 | 20104 ft | 415 kts | 54° |
| 2026-05-05 17:15 | 34.05188 | -118.22321 | 20844 ft | 420 kts | 54° |
| 2026-05-05 17:15 | 34.06825 | -118.19444 | 21540 ft | 424 kts | 54° |
| 2026-05-05 17:15 | 34.08508 | -118.16479 | 22272 ft | 427 kts | 54° |
| 2026-05-05 17:16 | 34.10164 | -118.13554 | 22938 ft | 431 kts | 54° |
| 2026-05-05 17:16 | 34.11861 | -118.10551 | 23586 ft | 436 kts | 54° |
| 2026-05-05 17:16 | 34.13593 | -118.07484 | 24221 ft | 440 kts | 54° |
| 2026-05-05 17:16 | 34.15305 | -118.04449 | 24811 ft | 443 kts | 54° |
| 2026-05-05 17:17 | 34.17059 | -118.01333 | 25388 ft | 447 kts | 54° |
| 2026-05-05 17:17 | 34.18799 | -117.98242 | 25928 ft | 450 kts | 54° |
| 2026-05-05 17:17 | 34.20557 | -117.95115 | 26442 ft | 454 kts | 54° |
| 2026-05-05 17:17 | 34.22343 | -117.91937 | 26926 ft | 458 kts | 54° |
| 2026-05-05 17:18 | 34.24157 | -117.88705 | 27458 ft | 461 kts | 54° |
| 2026-05-05 17:18 | 34.25951 | -117.85508 | 28154 ft | 459 kts | 54° |
| 2026-05-05 17:18 | 34.27719 | -117.82349 | 28713 ft | 457 kts | 54° |
| 2026-05-05 17:18 | 34.29513 | -117.79145 | 28938 ft | 461 kts | 54° |
| 2026-05-05 17:19 | 34.33084 | -117.72757 | 28995 ft | 457 kts | 54° |
| 2026-05-05 17:19 | 34.36656 | -117.66415 | 28984 ft | 455 kts | 53° |
| 2026-05-05 17:20 | 34.40383 | -117.60141 | 28989 ft | 457 kts | 52° |
| 2026-05-05 17:20 | 34.44111 | -117.53962 | 28973 ft | 455 kts | 52° |
| 2026-05-05 17:21 | 34.47857 | -117.47728 | 28990 ft | 454 kts | 52° |
| 2026-05-05 17:22 | 34.53400 | -117.38438 | 29015 ft | 456 kts | 52° |
| 2026-05-05 17:22 | 34.57099 | -117.32208 | 29020 ft | 454 kts | 53° |
| 2026-05-05 17:23 | 34.60780 | -117.25990 | 29008 ft | 452 kts | 53° |
| 2026-05-05 17:23 | 34.64468 | -117.19747 | 28994 ft | 455 kts | 53° |
| 2026-05-05 17:24 | 34.68156 | -117.13496 | 28985 ft | 452 kts | 53° |
| 2026-05-05 17:24 | 34.71796 | -117.07313 | 28970 ft | 451 kts | 53° |
| 2026-05-05 17:25 | 34.75446 | -117.01102 | 28964 ft | 452 kts | 53° |
| 2026-05-05 17:25 | 34.79077 | -116.94913 | 28965 ft | 451 kts | 54° |
| 2026-05-05 17:26 | 34.82763 | -116.88616 | 28972 ft | 453 kts | 53° |
| 2026-05-05 17:26 | 34.86427 | -116.82347 | 28983 ft | 453 kts | 53° |
| 2026-05-05 17:27 | 34.90076 | -116.76096 | 28980 ft | 454 kts | 53° |
| 2026-05-05 17:27 | 34.93708 | -116.69833 | 28955 ft | 454 kts | 54° |
| 2026-05-05 17:28 | 34.97314 | -116.63468 | 28961 ft | 454 kts | 54° |
| 2026-05-05 17:28 | 35.00879 | -116.57123 | 28949 ft | 456 kts | 54° |
| 2026-05-05 17:29 | 35.04483 | -116.50703 | 28944 ft | 455 kts | 54° |
| 2026-05-05 17:29 | 35.08087 | -116.44287 | 28949 ft | 460 kts | 54° |
| 2026-05-05 17:30 | 35.11976 | -116.38068 | 28944 ft | 459 kts | 48° |
| 2026-05-05 17:30 | 35.16295 | -116.32326 | 28945 ft | 457 kts | 46° |
| 2026-05-05 17:31 | 35.20719 | -116.26704 | 28940 ft | 458 kts | 45° |
| 2026-05-05 17:31 | 35.25121 | -116.21038 | 27974 ft | 459 kts | 47° |
| 2026-05-05 17:31 | 35.27265 | -116.18166 | 26670 ft | 461 kts | 47° |
| 2026-05-05 17:32 | 35.29429 | -116.15218 | 25315 ft | 461 kts | 48° |
| 2026-05-05 17:32 | 35.31515 | -116.12349 | 24452 ft | 450 kts | 48° |
| 2026-05-05 17:32 | 35.33559 | -116.09528 | 23444 ft | 442 kts | 48° |
| 2026-05-05 17:32 | 35.35580 | -116.06735 | 22379 ft | 435 kts | 48° |
| 2026-05-05 17:33 | 35.37562 | -116.03994 | 21602 ft | 430 kts | 48° |
| 2026-05-05 17:33 | 35.39531 | -116.01269 | 20911 ft | 425 kts | 48° |
| 2026-05-05 17:33 | 35.41472 | -115.98586 | 20231 ft | 420 kts | 48° |
| 2026-05-05 17:33 | 35.43418 | -115.95897 | 19532 ft | 416 kts | 48° |
| 2026-05-05 17:34 | 35.45314 | -115.93277 | 18855 ft | 411 kts | 48° |
| 2026-05-05 17:34 | 35.47214 | -115.90652 | 18162 ft | 407 kts | 48° |
| 2026-05-05 17:34 | 35.49095 | -115.88050 | 17471 ft | 403 kts | 48° |
| 2026-05-05 17:34 | 35.50923 | -115.85522 | 16950 ft | 395 kts | 48° |
| 2026-05-05 17:35 | 35.52729 | -115.83023 | 16660 ft | 382 kts | 48° |
| 2026-05-05 17:35 | 35.54445 | -115.80646 | 16514 ft | 365 kts | 48° |
| 2026-05-05 17:35 | 35.56096 | -115.78358 | 16359 ft | 350 kts | 48° |
| 2026-05-05 17:35 | 35.57668 | -115.76177 | 16202 ft | 337 kts | 48° |
| 2026-05-05 17:36 | 35.59200 | -115.74050 | 16022 ft | 325 kts | 48° |
| 2026-05-05 17:36 | 35.60675 | -115.72031 | 16000 ft | 311 kts | 48° |
| 2026-05-05 17:36 | 35.62152 | -115.70042 | 16004 ft | 310 kts | 47° |
| 2026-05-05 17:36 | 35.63630 | -115.68057 | 16005 ft | 312 kts | 47° |
| 2026-05-05 17:37 | 35.65098 | -115.66082 | 16007 ft | 312 kts | 47° |
| 2026-05-05 17:37 | 35.66558 | -115.64114 | 16005 ft | 311 kts | 47° |
| 2026-05-05 17:37 | 35.68015 | -115.62147 | 16005 ft | 311 kts | 47° |
| 2026-05-05 17:37 | 35.69465 | -115.60184 | 16008 ft | 312 kts | 47° |
| 2026-05-05 17:38 | 35.70948 | -115.58180 | 16003 ft | 312 kts | 47° |
| 2026-05-05 17:38 | 35.72457 | -115.56290 | 16003 ft | 312 kts | 43° |
| 2026-05-05 17:38 | 35.74157 | -115.54633 | 16000 ft | 312 kts | 34° |
| 2026-05-05 17:38 | 35.76017 | -115.53216 | 16001 ft | 313 kts | 30° |
| 2026-05-05 17:39 | 35.77932 | -115.51909 | 15994 ft | 312 kts | 29° |
| 2026-05-05 17:39 | 35.79852 | -115.50626 | 15996 ft | 313 kts | 29° |
| 2026-05-05 17:39 | 35.81779 | -115.49320 | 15900 ft | 310 kts | 30° |
| 2026-05-05 17:39 | 35.83644 | -115.48032 | 15563 ft | 306 kts | 30° |
| 2026-05-05 17:40 | 35.85504 | -115.46732 | 15153 ft | 304 kts | 30° |
| 2026-05-05 17:40 | 35.87342 | -115.45441 | 14788 ft | 302 kts | 30° |
| 2026-05-05 17:40 | 35.89155 | -115.44166 | 14396 ft | 300 kts | 30° |
| 2026-05-05 17:40 | 35.90955 | -115.42899 | 13993 ft | 297 kts | 30° |
| 2026-05-05 17:41 | 35.92744 | -115.41647 | 13621 ft | 294 kts | 30° |
| 2026-05-05 17:41 | 35.94536 | -115.40397 | 13258 ft | 292 kts | 30° |
| 2026-05-05 17:41 | 35.96310 | -115.39162 | 12899 ft | 289 kts | 30° |
| 2026-05-05 17:41 | 35.98053 | -115.37944 | 12525 ft | 288 kts | 31° |
| 2026-05-05 17:42 | 35.99701 | -115.36563 | 12159 ft | 285 kts | 42° |
| 2026-05-05 17:42 | 36.00903 | -115.34631 | 11781 ft | 281 kts | 66° |
| 2026-05-05 17:42 | 36.01383 | -115.32348 | 11451 ft | 276 kts | 85° |
| 2026-05-05 17:42 | 36.01413 | -115.29954 | 11086 ft | 275 kts | 93° |
| 2026-05-05 17:43 | 36.01300 | -115.27577 | 10708 ft | 274 kts | 95° |
| 2026-05-05 17:43 | 36.01164 | -115.25266 | 10360 ft | 272 kts | 95° |
| 2026-05-05 17:43 | 36.01031 | -115.22915 | 10034 ft | 270 kts | 94° |
| 2026-05-05 17:43 | 36.00911 | -115.20664 | 9916 ft | 260 kts | 94° |
| 2026-05-05 17:44 | 36.00798 | -115.18444 | 9632 ft | 260 kts | 94° |
| 2026-05-05 17:44 | 36.00681 | -115.16154 | 9400 ft | 266 kts | 94° |
| 2026-05-05 17:44 | 36.00568 | -115.13929 | 9320 ft | 254 kts | 94° |
| 2026-05-05 17:44 | 36.00460 | -115.11806 | 9248 ft | 243 kts | 94° |
| 2026-05-05 17:45 | 36.00357 | -115.09731 | 9067 ft | 237 kts | 94° |
| 2026-05-05 17:45 | 36.00301 | -115.08593 | 8900 ft | 237 kts | 94° |
| 2026-05-05 17:45 | 36.00198 | -115.06558 | 8628 ft | 236 kts | 94° |
| 2026-05-05 17:45 | 36.00119 | -115.05021 | 8428 ft | 235 kts | 94° |
| 2026-05-05 17:46 | 36.00016 | -115.03007 | 8168 ft | 234 kts | 95° |
| 2026-05-05 17:46 | 35.99915 | -115.01026 | 7994 ft | 232 kts | 94° |
| 2026-05-05 17:46 | 35.99866 | -114.99000 | 7967 ft | 234 kts | 91° |
| 2026-05-05 17:46 | 35.99876 | -114.97003 | 7704 ft | 235 kts | 90° |
| 2026-05-05 17:47 | 35.99893 | -114.94981 | 7430 ft | 233 kts | 88° |
| 2026-05-05 17:47 | 36.00149 | -114.93033 | 7316 ft | 224 kts | 71° |
| 2026-05-05 17:47 | 36.01035 | -114.91499 | 7147 ft | 217 kts | 39° |
| 2026-05-05 17:47 | 36.02283 | -114.90595 | 7078 ft | 201 kts | 27° |
| 2026-05-05 17:48 | 36.03561 | -114.90078 | 6959 ft | 186 kts | 5° |
| 2026-05-05 17:48 | 36.04780 | -114.90344 | 6779 ft | 175 kts | 335° |
| 2026-05-05 17:48 | 36.05841 | -114.91080 | 6491 ft | 174 kts | 327° |
| 2026-05-05 17:48 | 36.06818 | -114.91940 | 6183 ft | 173 kts | 314° |
| 2026-05-05 17:49 | 36.07371 | -114.93215 | 5875 ft | 167 kts | 277° |
| 2026-05-05 17:49 | 36.07361 | -114.94643 | 5537 ft | 169 kts | 265° |
| 2026-05-05 17:49 | 36.07334 | -114.96090 | 5088 ft | 169 kts | 268° |
| 2026-05-05 17:49 | 36.07348 | -114.97534 | 4639 ft | 165 kts | 268° |
| 2026-05-05 17:50 | 36.07351 | -114.98914 | 4248 ft | 158 kts | 268° |
| 2026-05-05 17:50 | 36.07353 | -115.00259 | 3993 ft | 152 kts | 268° |
| 2026-05-05 17:50 | 36.07355 | -115.01547 | 3806 ft | 154 kts | 267° |
| 2026-05-05 17:50 | 36.07355 | -115.02860 | 3596 ft | 152 kts | 267° |
| 2026-05-05 17:51 | 36.07355 | -115.04163 | 3398 ft | 151 kts | 268° |
| 2026-05-05 17:51 | 36.07359 | -115.05441 | 3192 ft | 143 kts | 267° |
| 2026-05-05 17:51 | 36.07356 | -115.06676 | 3010 ft | 143 kts | 267° |
| 2026-05-05 17:51 | 36.07359 | -115.07909 | 2822 ft | 142 kts | 268° |
| 2026-05-05 17:52 | 36.07367 | -115.09134 | 2619 ft | 142 kts | 268° |
| 2026-05-05 17:52 | 36.07370 | -115.10344 | 2438 ft | 140 kts | 266° |
| 2026-05-05 17:52 | 36.07363 | -115.11545 | 2249 ft | 139 kts | 267° |
| 2026-05-05 17:52 | 36.07362 | -115.12736 | 2095 ft | 137 kts | 267° |
| 2026-05-05 17:53 | 36.07356 | -115.13799 | 2088 ft | 96 kts | 270° |
| 2026-05-05 17:53 | 36.07363 | -115.14335 | 2105 ft | 34 kts | 271° |
| 2026-05-05 17:53 | 36.07364 | -115.14593 | 2111 ft | 32 kts | 271° |
| 2026-05-05 17:53 | 36.07393 | -115.14855 | 2121 ft | 26 kts | 287° |
| 2026-05-05 17:54 | 36.07452 | -115.15014 | 2126 ft | 3 kts | 301° |
| 2026-05-05 17:54 | 36.07452 | -115.15015 | 2126 ft | 0 kts | 301° |
| 2026-05-05 17:54 | 36.07453 | -115.15015 | 2126 ft | 0 kts | 301° |
| 2026-05-05 17:55 | 36.07468 | -115.15047 | 2127 ft | 4 kts | 301° |
| 2026-05-05 17:55 | 36.07500 | -115.15097 | 2128 ft | 9 kts | 314° |
| 2026-05-05 17:55 | 36.07562 | -115.15154 | 2129 ft | 15 kts | 331° |
| 2026-05-05 17:55 | 36.07696 | -115.15230 | 2129 ft | 21 kts | 334° |
| 2026-05-05 17:56 | 36.07801 | -115.15227 | 2127 ft | 17 kts | 69° |
| 2026-05-05 17:56 | 36.07801 | -115.15063 | 2121 ft | 20 kts | 94° |
| 2026-05-05 17:56 | 36.07787 | -115.14873 | 2114 ft | 24 kts | 94° |
| 2026-05-05 17:56 | 36.07774 | -115.14658 | 2109 ft | 26 kts | 94° |
| 2026-05-05 17:57 | 36.07758 | -115.14427 | 2100 ft | 27 kts | 95° |
| 2026-05-05 17:57 | 36.07753 | -115.14182 | 2094 ft | 22 kts | 90° |
| 2026-05-05 17:57 | 36.07753 | -115.13996 | 2087 ft | 20 kts | 89° |
| 2026-05-05 17:57 | 36.07753 | -115.13836 | 2083 ft | 14 kts | 84° |
| 2026-05-05 17:58 | 36.07813 | -115.13802 | 2082 ft | 10 kts | 320° |
| 2026-05-05 17:58 | 36.07826 | -115.13889 | 2084 ft | 11 kts | 270° |
| 2026-05-05 17:58 | 36.07871 | -115.13950 | 2084 ft | 11 kts | 4° |
| 2026-05-05 17:58 | 36.07932 | -115.13896 | 2081 ft | 0 kts | 42° |
| 2026-05-05 17:59 | 36.07954 | -115.13882 | 2080 ft | 8 kts | 11° |
| 2026-05-05 17:59 | 36.08008 | -115.13921 | 2079 ft | 8 kts | 311° |
| 2026-05-05 17:59 | 36.08012 | -115.13926 | 2079 ft | 0 kts | 312° |